Vinhedo, Brazil
Current Conditions -  °F | °C
As of 1:00 AM on Tuesday 23 Dec 2014 (Local Time) from SBKP Reporting Station
Moderate Rain Moderate Rain  
Wind Chill: 70°   Ceiling: 7000
Heat Index: 70°   Visibility: 6mi
Dew Point: 70°   Wind: 7mph
Humidity: 100%   Direction: 110°ESE
Pressure: 30"   Gusts: NA
Location:  23.02°S, 46.99°W
Report Text: SBKP 230300Z 11006KT 9000 RA FEW023 SCT035 OVC070 21/21 Q1016
Loading
Personal Weather Stations






























Interactive Weather Map New forecast layout! Learn more

10-Day Weather Forecast

Advertisements
Track Severe Weather on mobile